Time;durP1;ratioP1;P1;durP2;ratioP2;P2;SDS_P1;SDS_P2;PMS_P1;PMS_P2;Temp;Humidity;BMP_temperature;BMP_pressure;BME280_temperature;BME280_humidity;BME280_pressure;Samples;Min_cycle;Max_cycle;Signal;HPM_P1;HPM_P2
2022/01/09 00:01:36;;;;;;;8.70;5.75;;;;;;;;;;5081316;28;20090;-71
2022/01/09 00:04:02;;;;;;;7.22;5.60;;;;;;;;;;5070958;28;20043;-71
2022/01/09 00:06:28;;;;;;;7.57;5.95;;;;;;;;;;5074735;28;20417;-70
2022/01/09 00:08:54;;;;;;;9.75;5.97;;;;;;;;;;5071402;28;20036;-70
2022/01/09 00:11:26;;;;;;;8.70;6.13;;;;;;;;;;5071073;28;20036;-70
2022/01/09 00:13:53;;;;;;;7.65;5.93;;;;;;;;;;5071217;28;20048;-70
2022/01/09 00:16:20;;;;;;;8.82;5.90;;;;;;;;;;5069274;28;20036;-70
2022/01/09 00:18:46;;;;;;;9.00;6.45;;;;;;;;;;5072516;28;20047;-70
2022/01/09 00:21:12;;;;;;;7.70;6.07;;;;;;;;;;5070759;28;20456;-71
2022/01/09 00:23:38;;;;;;;8.88;6.70;;;;;;;;;;5074298;28;20089;-70
2022/01/09 00:26:06;;;;;;;8.10;6.05;;;;;;;;;;5073866;28;20043;-70
2022/01/09 00:28:32;;;;;;;9.85;6.20;;;;;;;;;;5077320;28;20076;-71
2022/01/09 00:30:58;;;;;;;10.32;6.82;;;;;;;;;;5074472;28;20173;-70
2022/01/09 00:33:24;;;;;;;9.32;6.88;;;;;;;;;;5074686;28;20055;-70
2022/01/09 00:35:50;;;;;;;8.35;7.03;;;;;;;;;;5072799;28;20398;-70
2022/01/09 00:38:16;;;;;;;8.23;6.40;;;;;;;;;;5077333;28;20058;-70
2022/01/09 00:40:42;;;;;;;9.23;6.80;;;;;;;;;;5074958;28;20041;-70
2022/01/09 00:43:09;;;;;;;9.68;7.25;;;;;;;;;;5078136;28;20101;-70
2022/01/09 00:45:38;;;;;;;8.52;6.18;;;;;;;;;;5073637;28;20083;-71
2022/01/09 00:48:05;;;;;;;8.27;6.53;;;;;;;;;;5075968;28;20490;-70
2022/01/09 00:50:31;;;;;;;7.65;6.10;;;;;;;;;;5074541;28;20033;-70
2022/01/09 00:52:57;;;;;;;7.43;6.03;;;;;;;;;;5074279;28;20050;-71
2022/01/09 00:55:23;;;;;;;8.15;6.47;;;;;;;;;;5074049;28;20135;-70
2022/01/09 00:57:49;;;;;;;8.82;6.50;;;;;;;;;;5074151;28;20044;-70
2022/01/09 01:00:15;;;;;;;7.95;6.25;;;;;;;;;;5074168;28;20546;-70
2022/01/09 01:02:41;;;;;;;10.43;6.50;;;;;;;;;;5073725;28;20036;-70
2022/01/09 01:05:08;;;;;;;7.68;6.30;;;;;;;;;;5073904;28;20093;-70
2022/01/09 01:07:34;;;;;;;8.95;6.47;;;;;;;;;;5075929;28;20032;-70
2022/01/09 01:10:00;;;;;;;8.10;6.80;;;;;;;;;;5074698;28;20040;-71
2022/01/09 01:12:27;;;;;;;9.20;7.07;;;;;;;;;;5073101;28;20037;-70
2022/01/09 01:14:54;;;;;;;8.73;6.93;;;;;;;;;;5074227;28;20505;-71
2022/01/09 01:17:20;;;;;;;8.48;6.93;;;;;;;;;;5073735;28;20408;-70
2022/01/09 01:19:46;;;;;;;8.82;6.85;;;;;;;;;;5087361;28;20044;-70
2022/01/09 01:22:12;;;;;;;8.32;6.60;;;;;;;;;;5089774;28;20051;-70
2022/01/09 01:24:39;;;;;;;9.85;7.07;;;;;;;;;;5074632;28;20115;-70
2022/01/09 01:27:05;;;;;;;8.63;7.55;;;;;;;;;;5078646;28;20040;-70
2022/01/09 01:29:31;;;;;;;11.93;7.88;;;;;;;;;;5073495;28;20032;-70
2022/01/09 01:31:57;;;;;;;9.77;8.40;;;;;;;;;;5073458;28;20045;-71
2022/01/09 01:34:23;;;;;;;12.93;8.73;;;;;;;;;;5073626;28;20089;-70
2022/01/09 01:36:49;;;;;;;11.93;8.77;;;;;;;;;;5073164;28;20398;-70
2022/01/09 01:39:15;;;;;;;13.68;10.32;;;;;;;;;;5073256;28;20448;-70
2022/01/09 01:41:41;;;;;;;13.50;9.70;;;;;;;;;;5073457;28;20032;-71
2022/01/09 01:44:09;;;;;;;15.77;11.13;;;;;;;;;;5073544;28;20464;-70
2022/01/09 01:46:35;;;;;;;17.08;11.40;;;;;;;;;;5073850;28;20032;-70
2022/01/09 01:49:01;;;;;;;16.73;12.00;;;;;;;;;;5073081;28;20383;-70
2022/01/09 01:51:27;;;;;;;17.95;12.40;;;;;;;;;;5073375;28;20120;-70
2022/01/09 01:53:55;;;;;;;18.85;13.18;;;;;;;;;;5073257;28;20044;-70
2022/01/09 01:56:21;;;;;;;17.50;12.93;;;;;;;;;;5068564;28;20398;-70
2022/01/09 01:58:48;;;;;;;18.45;13.40;;;;;;;;;;5074517;28;20119;-70
2022/01/09 02:01:14;;;;;;;18.90;13.68;;;;;;;;;;5074604;28;20045;-70
2022/01/09 02:03:41;;;;;;;19.08;13.50;;;;;;;;;;5086541;28;20520;-70
2022/01/09 02:06:07;;;;;;;23.00;14.63;;;;;;;;;;5071106;28;20028;-70
2022/01/09 02:08:33;;;;;;;20.98;14.35;;;;;;;;;;5076384;28;20039;-70
2022/01/09 02:10:59;;;;;;;21.85;14.52;;;;;;;;;;5072883;28;20094;-70
2022/01/09 02:13:25;;;;;;;25.35;15.93;;;;;;;;;;5072381;28;20115;-70
2022/01/09 02:15:57;;;;;;;22.27;15.07;;;;;;;;;;5071098;28;20451;-70
2022/01/09 02:18:23;;;;;;;;;;;;;;;;;;5071266;28;20041;-70
2022/01/09 02:20:49;;;;;;;22.05;14.45;;;;;;;;;;5072642;28;20408;-70
2022/01/09 02:23:16;;;;;;;20.80;13.93;;;;;;;;;;5072511;28;20039;-70
2022/01/09 02:25:43;;;;;;;23.83;15.57;;;;;;;;;;5071649;28;20045;-70
2022/01/09 02:28:09;;;;;;;23.50;14.73;;;;;;;;;;5074295;28;20037;-70
2022/01/09 02:30:35;;;;;;;25.02;14.82;;;;;;;;;;5078603;28;20040;-70
2022/01/09 02:33:03;;;;;;;21.55;14.90;;;;;;;;;;5072722;28;20051;-70
2022/01/09 02:35:29;;;;;;;23.95;14.68;;;;;;;;;;5072841;28;20036;-70
2022/01/09 02:37:56;;;;;;;23.80;14.65;;;;;;;;;;5072309;28;20075;-70
2022/01/09 02:40:22;;;;;;;23.15;15.02;;;;;;;;;;5071494;28;20550;-70
2022/01/09 02:42:48;;;;;;;21.17;13.93;;;;;;;;;;5072161;28;20613;-70
2022/01/09 02:45:18;;;;;;;24.77;13.55;;;;;;;;;;5070730;28;20068;-70
2022/01/09 02:47:44;;;;;;;19.10;12.45;;;;;;;;;;5070638;28;20044;-70
2022/01/09 02:50:26;;;;;;;17.98;11.85;;;;;;;;;;5072619;28;20041;-70
2022/01/09 02:52:57;;;;;;;20.08;12.13;;;;;;;;;;5071079;28;20051;-70
2022/01/09 02:55:23;;;;;;;19.40;12.45;;;;;;;;;;5072207;28;20129;-70
2022/01/09 02:57:53;;;;;;;19.63;11.50;;;;;;;;;;5072243;28;20040;-70
2022/01/09 03:00:25;;;;;;;19.90;11.65;;;;;;;;;;5069214;28;20036;-70
2022/01/09 03:02:51;;;;;;;20.95;11.48;;;;;;;;;;5070795;28;20044;-70
2022/01/09 03:05:17;;;;;;;17.92;10.50;;;;;;;;;;5070541;28;20033;-70
2022/01/09 03:07:43;;;;;;;21.55;11.48;;;;;;;;;;5068181;28;20032;-70
2022/01/09 03:10:10;;;;;;;18.02;10.90;;;;;;;;;;5071161;28;20101;-70
2022/01/09 03:12:36;;;;;;;17.52;10.15;;;;;;;;;;5071715;28;20070;-70
2022/01/09 03:15:03;;;;;;;19.17;10.55;;;;;;;;;;5071909;28;20129;-70
2022/01/09 03:17:29;;;;;;;15.27;8.98;;;;;;;;;;5072101;28;20072;-70
2022/01/09 03:19:55;;;;;;;15.80;9.50;;;;;;;;;;5071471;28;20036;-70
2022/01/09 03:22:21;;;;;;;17.52;9.75;;;;;;;;;;5070680;28;20052;-70
2022/01/09 03:24:49;;;;;;;20.83;9.93;;;;;;;;;;5071544;28;20040;-70
2022/01/09 03:27:15;;;;;;;18.27;9.02;;;;;;;;;;5073633;28;20044;-70
2022/01/09 03:29:40;;;;;;;19.05;9.73;;;;;;;;;;5071200;28;20041;-70
2022/01/09 03:32:07;;;;;;;21.50;8.88;;;;;;;;;;5071096;28;20036;-70
2022/01/09 03:34:33;;;;;;;21.42;9.02;;;;;;;;;;5069132;28;20047;-70
2022/01/09 03:36:59;;;;;;;22.55;8.93;;;;;;;;;;5072269;28;20436;-71
2022/01/09 03:39:25;;;;;;;18.00;7.53;;;;;;;;;;5071607;28;20041;-70
2022/01/09 03:41:54;;;;;;;14.90;6.80;;;;;;;;;;5068164;28;20032;-70
2022/01/09 03:44:20;;;;;;;18.58;6.55;;;;;;;;;;5073279;28;20032;-71
2022/01/09 03:46:46;;;;;;;21.63;5.38;;;;;;;;;;5072111;28;20035;-71
2022/01/09 03:49:12;;;;;;;17.88;5.07;;;;;;;;;;5070933;28;20045;-70
2022/01/09 03:51:39;;;;;;;22.92;5.15;;;;;;;;;;5071208;28;20051;-71
2022/01/09 03:54:06;;;;;;;18.77;4.70;;;;;;;;;;5071534;28;20044;-71
2022/01/09 03:56:32;;;;;;;26.83;4.43;;;;;;;;;;5069990;28;20481;-71
2022/01/09 03:58:58;;;;;;;32.80;4.60;;;;;;;;;;5071537;28;20058;-71
2022/01/09 04:01:24;;;;;;;38.17;4.72;;;;;;;;;;5070758;28;20043;-71
2022/01/09 04:03:51;;;;;;;28.27;5.72;;;;;;;;;;5070693;28;20044;-71
2022/01/09 04:06:17;;;;;;;35.47;5.28;;;;;;;;;;5069539;28;20048;-71
2022/01/09 04:08:43;;;;;;;46.28;5.97;;;;;;;;;;5073475;28;20682;-71
2022/01/09 04:11:09;;;;;;;39.60;5.35;;;;;;;;;;5070517;28;20226;-71
2022/01/09 04:13:36;;;;;;;35.38;5.07;;;;;;;;;;5070578;28;20033;-71
2022/01/09 04:16:02;;;;;;;40.35;5.65;;;;;;;;;;5069629;28;20405;-71
2022/01/09 04:18:28;;;;;;;37.97;5.72;;;;;;;;;;5072775;28;20033;-71
2022/01/09 04:20:54;;;;;;;39.78;5.70;;;;;;;;;;5071467;28;20052;-70
2022/01/09 04:23:21;;;;;;;42.33;5.10;;;;;;;;;;5071340;28;20390;-70
2022/01/09 04:25:47;;;;;;;38.65;5.75;;;;;;;;;;5068419;28;20044;-70
2022/01/09 04:28:14;;;;;;;35.70;4.95;;;;;;;;;;5073381;28;20067;-71
2022/01/09 04:30:40;;;;;;;47.38;5.85;;;;;;;;;;5070762;28;20043;-71
2022/01/09 04:33:06;;;;;;;39.45;5.43;;;;;;;;;;5077008;28;20147;-70
2022/01/09 04:35:32;;;;;;;37.67;5.50;;;;;;;;;;5065570;28;20040;-71
2022/01/09 04:37:58;;;;;;;38.42;5.60;;;;;;;;;;5068838;28;20089;-71
2022/01/09 04:40:24;;;;;;;46.10;6.13;;;;;;;;;;5070399;28;20554;-70
2022/01/09 04:42:58;;;;;;;38.30;4.78;;;;;;;;;;5068102;28;20040;-72
2022/01/09 04:45:26;;;;;;;37.78;5.50;;;;;;;;;;5069968;28;20033;-72
2022/01/09 04:47:53;;;;;;;41.80;5.47;;;;;;;;;;5068830;28;20075;-71
2022/01/09 04:50:24;;;;;;;31.75;4.80;;;;;;;;;;5071389;28;20067;-71
2022/01/09 04:52:53;;;;;;;32.28;5.55;;;;;;;;;;5069944;28;20038;-71
2022/01/09 04:55:20;;;;;;;37.45;4.68;;;;;;;;;;5070487;28;20115;-71
2022/01/09 04:57:46;;;;;;;29.70;5.10;;;;;;;;;;5069063;28;20040;-71
2022/01/09 05:00:12;;;;;;;26.88;4.22;;;;;;;;;;5082531;28;20044;-71
2022/01/09 05:02:38;;;;;;;32.72;3.85;;;;;;;;;;5082741;22;21264;-67
2022/01/09 05:05:05;;;;;;;26.38;4.07;;;;;;;;;;5065607;28;20511;-67
2022/01/09 05:07:31;;;;;;;29.77;4.13;;;;;;;;;;5082625;28;20473;-67
2022/01/09 05:09:57;;;;;;;31.02;4.68;;;;;;;;;;5073508;28;20055;-67
2022/01/09 05:12:23;;;;;;;21.73;3.83;;;;;;;;;;5089561;28;20040;-67
2022/01/09 05:14:49;;;;;;;23.98;4.47;;;;;;;;;;5086343;28;20405;-67
2022/01/09 05:17:15;;;;;;;24.48;3.85;;;;;;;;;;5089785;28;20044;-67
2022/01/09 05:19:41;;;;;;;25.45;3.63;;;;;;;;;;5089645;28;20138;-67
2022/01/09 05:22:08;;;;;;;24.40;4.18;;;;;;;;;;5093369;28;20057;-67
2022/01/09 05:24:35;;;;;;;28.33;4.20;;;;;;;;;;5096242;28;20044;-67
2022/01/09 05:27:01;;;;;;;29.58;3.95;;;;;;;;;;5086381;28;20082;-66
2022/01/09 05:29:27;;;;;;;28.25;4.60;;;;;;;;;;5091130;28;20433;-67
2022/01/09 05:31:53;;;;;;;22.58;3.92;;;;;;;;;;5089042;28;20035;-67
2022/01/09 05:34:19;;;;;;;31.33;4.50;;;;;;;;;;5091607;28;20498;-67
2022/01/09 05:36:45;;;;;;;21.73;3.47;;;;;;;;;;5081479;28;20046;-67
2022/01/09 05:39:11;;;;;;;18.67;3.50;;;;;;;;;;5090923;28;20040;-67
2022/01/09 05:41:37;;;;;;;24.55;3.42;;;;;;;;;;5080038;28;20051;-67
2022/01/09 05:44:03;;;;;;;23.50;3.60;;;;;;;;;;5089651;28;20462;-67
2022/01/09 05:46:29;;;;;;;23.50;3.65;;;;;;;;;;5085635;28;20032;-67
2022/01/09 05:48:55;;;;;;;27.10;3.40;;;;;;;;;;5091458;28;20113;-67
2022/01/09 05:51:21;;;;;;;21.65;2.80;;;;;;;;;;5085477;28;20063;-66
2022/01/09 05:53:47;;;;;;;16.25;3.72;;;;;;;;;;5071755;28;20306;-67
2022/01/09 05:56:13;;;;;;;20.00;3.15;;;;;;;;;;5087669;28;20274;-67
2022/01/09 05:58:39;;;;;;;13.25;2.92;;;;;;;;;;5066234;28;20127;-67
2022/01/09 06:01:06;;;;;;;28.95;3.72;;;;;;;;;;5085497;28;20117;-67
2022/01/09 06:03:32;;;;;;;18.63;3.50;;;;;;;;;;5084665;28;20032;-67
2022/01/09 06:05:58;;;;;;;19.65;3.47;;;;;;;;;;5091322;28;20051;-67
2022/01/09 06:08:24;;;;;;;18.08;2.97;;;;;;;;;;5089392;28;20036;-66
2022/01/09 06:10:50;;;;;;;16.63;2.75;;;;;;;;;;5093416;28;20043;-67
2022/01/09 06:13:16;;;;;;;23.75;3.33;;;;;;;;;;5091117;28;20039;-67
2022/01/09 06:15:42;;;;;;;16.08;3.10;;;;;;;;;;5091996;28;20043;-66
2022/01/09 06:18:08;;;;;;;24.45;3.55;;;;;;;;;;5065844;28;20048;-67
2022/01/09 06:20:34;;;;;;;23.08;3.65;;;;;;;;;;5069757;28;20051;-67
2022/01/09 06:23:00;;;;;;;19.35;2.88;;;;;;;;;;5093323;28;20119;-67
2022/01/09 06:25:27;;;;;;;23.33;3.00;;;;;;;;;;5090696;28;20063;-66
2022/01/09 06:27:53;;;;;;;21.30;3.35;;;;;;;;;;5094200;28;20131;-66
2022/01/09 06:30:19;;;;;;;18.42;3.00;;;;;;;;;;5092806;28;20040;-66
2022/01/09 06:32:45;;;;;;;27.45;3.60;;;;;;;;;;5087504;28;20409;-67
2022/01/09 06:35:11;;;;;;;21.90;3.38;;;;;;;;;;5063363;28;20082;-67
2022/01/09 06:37:38;;;;;;;26.52;3.80;;;;;;;;;;5083088;28;20508;-66
2022/01/09 06:40:04;;;;;;;22.55;3.20;;;;;;;;;;5079147;28;20036;-66
2022/01/09 06:42:30;;;;;;;21.90;3.72;;;;;;;;;;5092196;28;20039;-67
2022/01/09 06:44:56;;;;;;;17.05;2.95;;;;;;;;;;5087788;28;20421;-67
2022/01/09 06:47:22;;;;;;;16.17;3.05;;;;;;;;;;5085399;28;20054;-67
2022/01/09 06:49:48;;;;;;;22.35;3.08;;;;;;;;;;5083248;28;20043;-67
2022/01/09 06:52:14;;;;;;;15.15;2.72;;;;;;;;;;5073593;28;20040;-66
2022/01/09 06:54:40;;;;;;;13.18;2.38;;;;;;;;;;5082598;28;20071;-66
2022/01/09 06:57:06;;;;;;;15.82;2.80;;;;;;;;;;5076762;28;20409;-66
2022/01/09 06:59:32;;;;;;;15.73;2.28;;;;;;;;;;5081332;28;20106;-66
2022/01/09 07:01:58;;;;;;;13.98;2.55;;;;;;;;;;5068880;28;20028;-66
2022/01/09 07:04:24;;;;;;;13.20;2.50;;;;;;;;;;5077010;28;20390;-66
2022/01/09 07:06:50;;;;;;;14.25;2.65;;;;;;;;;;5074094;28;20036;-66
2022/01/09 07:09:16;;;;;;;16.05;3.03;;;;;;;;;;5088541;28;20114;-66
2022/01/09 07:11:42;;;;;;;21.20;2.70;;;;;;;;;;5084716;28;20047;-66
2022/01/09 07:14:08;;;;;;;13.30;2.10;;;;;;;;;;5080806;28;20032;-66
2022/01/09 07:16:34;;;;;;;16.42;2.92;;;;;;;;;;5082921;28;20425;-67
2022/01/09 07:19:00;;;;;;;10.40;2.53;;;;;;;;;;5068371;28;20485;-66
2022/01/09 07:21:26;;;;;;;13.00;2.38;;;;;;;;;;5081007;28;20028;-67
2022/01/09 07:23:52;;;;;;;10.25;2.20;;;;;;;;;;5088057;28;20505;-66
2022/01/09 07:26:18;;;;;;;15.57;2.28;;;;;;;;;;5055819;28;20036;-67
2022/01/09 07:28:44;;;;;;;10.55;2.47;;;;;;;;;;5086939;28;20045;-67
2022/01/09 07:31:10;;;;;;;10.40;2.17;;;;;;;;;;5078995;28;20060;-66
2022/01/09 07:33:36;;;;;;;16.40;2.15;;;;;;;;;;5064647;28;20048;-67
2022/01/09 07:36:02;;;;;;;8.95;1.88;;;;;;;;;;5075658;28;20766;-67
2022/01/09 07:38:28;;;;;;;13.57;2.03;;;;;;;;;;5080260;28;20097;-67
2022/01/09 07:40:54;;;;;;;13.05;2.20;;;;;;;;;;5060078;28;20054;-67
2022/01/09 07:43:20;;;;;;;7.55;1.58;;;;;;;;;;5075236;28;20040;-67
2022/01/09 07:45:46;;;;;;;10.10;2.20;;;;;;;;;;5078415;28;20044;-67
2022/01/09 07:48:12;;;;;;;12.52;2.20;;;;;;;;;;5086507;28;20473;-67
2022/01/09 07:50:38;;;;;;;13.00;1.70;;;;;;;;;;5062144;28;20464;-67
2022/01/09 07:53:05;;;;;;;7.82;1.60;;;;;;;;;;5074040;28;20040;-67
2022/01/09 07:55:31;;;;;;;8.23;1.77;;;;;;;;;;5074785;28;20043;-67
2022/01/09 07:57:57;;;;;;;7.25;1.70;;;;;;;;;;5082908;28;20028;-67
2022/01/09 08:00:23;;;;;;;7.05;1.85;;;;;;;;;;5084110;28;20043;-67
2022/01/09 08:02:51;;;;;;;11.23;1.65;;;;;;;;;;5072106;28;20044;-67
2022/01/09 08:05:17;;;;;;;9.48;2.05;;;;;;;;;;5068671;28;20061;-67
2022/01/09 08:07:43;;;;;;;13.40;2.13;;;;;;;;;;5076520;28;20058;-66
2022/01/09 08:10:10;;;;;;;10.30;1.77;;;;;;;;;;5056761;28;20040;-66
2022/01/09 08:12:36;;;;;;;13.50;1.88;;;;;;;;;;5077709;28;20090;-67
2022/01/09 08:15:02;;;;;;;9.73;1.95;;;;;;;;;;5047711;28;20039;-66
2022/01/09 08:17:28;;;;;;;7.90;2.13;;;;;;;;;;5081419;28;20115;-66
2022/01/09 08:19:54;;;;;;;13.20;2.13;;;;;;;;;;5081942;28;20169;-66
2022/01/09 08:22:20;;;;;;;7.25;1.80;;;;;;;;;;5094375;28;20027;-66
2022/01/09 08:24:46;;;;;;;6.43;1.15;;;;;;;;;;5087474;28;20032;-66
2022/01/09 08:27:12;;;;;;;8.82;1.48;;;;;;;;;;5087699;28;20481;-66
2022/01/09 08:29:38;;;;;;;5.32;1.50;;;;;;;;;;5087380;28;20508;-66
2022/01/09 08:32:05;;;;;;;7.18;1.33;;;;;;;;;;5059848;28;20066;-66
2022/01/09 08:34:31;;;;;;;11.98;1.75;;;;;;;;;;5064496;28;20098;-66
2022/01/09 08:36:57;;;;;;;8.95;1.65;;;;;;;;;;5058230;28;20486;-66
2022/01/09 08:39:23;;;;;;;12.40;1.85;;;;;;;;;;5082308;28;20058;-66
2022/01/09 08:41:49;;;;;;;7.35;1.73;;;;;;;;;;5073148;28;20496;-66
2022/01/09 08:44:14;;;;;;;7.70;1.58;;;;;;;;;;5061635;28;20123;-66
2022/01/09 08:46:40;;;;;;;9.68;1.88;;;;;;;;;;5081497;28;20036;-67
2022/01/09 08:49:06;;;;;;;9.15;1.48;;;;;;;;;;5090282;28;20074;-66
2022/01/09 08:51:32;;;;;;;7.88;1.70;;;;;;;;;;5095078;28;20075;-66
2022/01/09 08:53:59;;;;;;;10.57;2.08;;;;;;;;;;5094987;28;20042;-66
2022/01/09 08:56:26;;;;;;;8.27;2.40;;;;;;;;;;5079079;28;20033;-66
2022/01/09 08:58:52;;;;;;;12.73;1.70;;;;;;;;;;5065107;28;20036;-66
2022/01/09 09:01:18;;;;;;;11.00;2.20;;;;;;;;;;5086664;28;20559;-66
2022/01/09 09:03:44;;;;;;;13.38;2.00;;;;;;;;;;5079475;28;20035;-66
2022/01/09 09:06:12;;;;;;;7.25;1.70;;;;;;;;;;5086686;28;20086;-66
2022/01/09 09:08:38;;;;;;;12.43;2.30;;;;;;;;;;5073967;28;20058;-66
2022/01/09 09:11:05;;;;;;;9.57;1.70;;;;;;;;;;5077971;28;20051;-67
2022/01/09 09:13:31;;;;;;;12.85;2.25;;;;;;;;;;5090990;28;20063;-66
2022/01/09 09:15:57;;;;;;;9.63;1.88;;;;;;;;;;5103741;28;20478;-66
2022/01/09 09:18:23;;;;;;;12.07;1.67;;;;;;;;;;5090824;28;20500;-66
2022/01/09 09:20:49;;;;;;;8.23;1.98;;;;;;;;;;5092596;28;20552;-66
2022/01/09 09:23:15;;;;;;;9.98;1.80;;;;;;;;;;5092316;28;20071;-66
2022/01/09 09:25:41;;;;;;;17.02;1.98;;;;;;;;;;5081675;28;20039;-66
2022/01/09 09:28:07;;;;;;;14.40;2.05;;;;;;;;;;5070406;28;20433;-66
2022/01/09 09:30:33;;;;;;;9.82;2.15;;;;;;;;;;5092669;28;20152;-66
2022/01/09 09:32:59;;;;;;;11.23;1.88;;;;;;;;;;5074292;28;20043;-66
2022/01/09 09:35:25;;;;;;;7.88;1.63;;;;;;;;;;5075760;28;20047;-66
2022/01/09 09:37:51;;;;;;;12.80;1.88;;;;;;;;;;5088292;28;20040;-66
2022/01/09 09:40:17;;;;;;;9.63;1.80;;;;;;;;;;5093672;28;20409;-66
2022/01/09 09:42:43;;;;;;;12.35;2.08;;;;;;;;;;5094123;28;20047;-66
2022/01/09 09:45:10;;;;;;;9.77;2.13;;;;;;;;;;5094111;28;20055;-66
2022/01/09 09:47:37;;;;;;;13.88;2.30;;;;;;;;;;5087398;28;20523;-66
2022/01/09 09:50:08;;;;;;;11.43;2.08;;;;;;;;;;5094371;28;20146;-66
2022/01/09 09:52:34;;;;;;;10.32;2.13;;;;;;;;;;5093966;28;20558;-66
2022/01/09 09:55:00;;;;;;;14.25;2.10;;;;;;;;;;5070442;28;20131;-66
2022/01/09 09:57:27;;;;;;;11.77;2.00;;;;;;;;;;5089313;28;20124;-66
2022/01/09 10:00:06;;;;;;;10.73;2.00;;;;;;;;;;5093427;28;20310;-66
2022/01/09 10:02:44;;;;;;;7.07;1.85;;;;;;;;;;5092852;28;20505;-66
2022/01/09 10:05:11;;;;;;;11.65;2.10;;;;;;;;;;5093674;28;20081;-66
2022/01/09 10:07:37;;;;;;;13.00;2.85;;;;;;;;;;5087524;28;20085;-66
2022/01/09 10:10:10;;;;;;;13.43;1.98;;;;;;;;;;5092888;28;20436;-66
2022/01/09 10:12:37;;;;;;;14.45;2.00;;;;;;;;;;5093697;28;20044;-66
2022/01/09 10:15:06;;;;;;;9.55;1.80;;;;;;;;;;5087522;28;20397;-66
2022/01/09 10:17:32;;;;;;;10.02;1.85;;;;;;;;;;5085028;28;20101;-66
2022/01/09 10:20:04;;;;;;;12.52;1.95;;;;;;;;;;5093556;28;20075;-66
2022/01/09 10:22:49;;;;;;;8.88;1.83;;;;;;;;;;5092644;28;20048;-66
2022/01/09 10:25:18;;;;;;;11.30;1.83;;;;;;;;;;5073867;28;20174;-65
2022/01/09 10:27:44;;;;;;;8.23;2.10;;;;;;;;;;5086149;28;20051;-66
2022/01/09 10:30:11;;;;;;;8.10;1.73;;;;;;;;;;5092674;28;20043;-66
2022/01/09 10:32:37;;;;;;;12.52;2.00;;;;;;;;;;5093343;28;20052;-66
2022/01/09 10:35:08;;;;;;;7.93;1.73;;;;;;;;;;5093050;28;20036;-66
2022/01/09 10:37:35;;;;;;;9.13;1.83;;;;;;;;;;5066856;28;20040;-66
2022/01/09 10:40:01;;;;;;;9.23;1.90;;;;;;;;;;5093286;28;20051;-66
2022/01/09 10:42:27;;;;;;;6.75;1.67;;;;;;;;;;5075129;28;20516;-66
2022/01/09 10:44:54;;;;;;;6.20;1.58;;;;;;;;;;5073965;28;20127;-66
2022/01/09 10:47:20;;;;;;;12.98;2.20;;;;;;;;;;5083963;28;20038;-66
2022/01/09 10:49:47;;;;;;;11.88;2.22;;;;;;;;;;5074950;28;20405;-66
2022/01/09 10:52:38;;;;;;;13.63;2.15;;;;;;;;;;5065662;28;20094;-66
2022/01/09 10:55:05;;;;;;;13.20;2.28;;;;;;;;;;5072484;28;20066;-66
2022/01/09 10:57:33;;;;;;;9.82;1.90;;;;;;;;;;5087276;28;20105;-66
2022/01/09 11:00:07;;;;;;;7.57;1.83;;;;;;;;;;5073496;28;20041;-66
2022/01/09 11:05:03;;;;;;;11.48;1.90;;;;;;;;;;4988299;28;20050;-77
2022/01/09 11:07:30;;;;;;;9.98;2.15;;;;;;;;;;4979498;28;20496;-77
2022/01/09 11:09:57;;;;;;;9.20;1.73;;;;;;;;;;4990441;28;20046;-76
2022/01/09 11:12:25;;;;;;;9.93;1.98;;;;;;;;;;4990446;28;20193;-77
2022/01/09 11:14:52;;;;;;;11.05;2.50;;;;;;;;;;4989191;28;20415;-77
2022/01/09 11:17:20;;;;;;;8.50;1.90;;;;;;;;;;4982770;28;20038;-77
2022/01/09 11:19:46;;;;;;;7.30;2.17;;;;;;;;;;4976209;28;20050;-77
2022/01/09 11:22:12;;;;;;;11.70;2.33;;;;;;;;;;4989036;28;20038;-77
2022/01/09 11:24:48;;;;;;;8.25;1.98;;;;;;;;;;4989838;28;20045;-76
2022/01/09 11:27:22;;;;;;;17.27;2.55;;;;;;;;;;4977900;28;20087;-77
2022/01/09 11:30:03;;;;;;;11.23;1.90;;;;;;;;;;4985221;28;20060;-77
2022/01/09 11:32:43;;;;;;;9.38;1.90;;;;;;;;;;4970584;28;20050;-76
2022/01/09 11:35:29;;;;;;;12.38;2.33;;;;;;;;;;4970368;28;20074;-77
2022/01/09 11:37:55;;;;;;;15.77;2.60;;;;;;;;;;4975825;28;20088;-77
2022/01/09 11:40:25;;;;;;;17.63;3.33;;;;;;;;;;4988924;28;20054;-77
2022/01/09 11:43:24;;;;;;;16.57;2.67;;;;;;;;;;4990338;28;20118;-76
2022/01/09 11:45:52;;;;;;;15.18;2.35;;;;;;;;;;4981665;28;20385;-77
2022/01/09 11:48:19;;;;;;;11.52;2.28;;;;;;;;;;4977898;28;20088;-77
2022/01/09 11:51:09;;;;;;;14.63;3.00;;;;;;;;;;4989667;28;20100;-77
2022/01/09 11:53:53;;;;;;;17.35;2.80;;;;;;;;;;4988169;28;20054;-77
2022/01/09 11:56:38;;;;;;;12.57;2.40;;;;;;;;;;4984414;28;20488;-77
2022/01/09 11:59:22;;;;;;;15.50;2.83;;;;;;;;;;4981261;28;20078;-77
2022/01/09 12:01:49;;;;;;;13.93;2.38;;;;;;;;;;4989708;28;20046;-77
2022/01/09 12:04:31;;;;;;;11.55;2.65;;;;;;;;;;4989423;28;20038;-77
2022/01/09 12:06:57;;;;;;;;;;;;;;;;;;4974123;28;20560;-77
2022/01/09 12:09:32;;;;;;;13.50;2.47;;;;;;;;;;4984489;28;19918;-77
2022/01/09 12:12:04;;;;;;;15.38;2.13;;;;;;;;;;4989577;28;20102;-76
2022/01/09 12:14:44;;;;;;;13.30;2.28;;;;;;;;;;4988096;28;20079;-77
2022/01/09 12:17:28;;;;;;;17.58;2.35;;;;;;;;;;4982433;28;20050;-77
2022/01/09 12:20:13;;;;;;;9.77;2.20;;;;;;;;;;4976540;28;20531;-77
2022/01/09 12:22:53;;;;;;;12.82;1.90;;;;;;;;;;4992881;28;20550;-77
2022/01/09 12:25:25;;;;;;;17.60;2.95;;;;;;;;;;4992462;28;20091;-77
2022/01/09 12:27:57;;;;;;;15.48;3.13;;;;;;;;;;4981899;28;20042;-77
2022/01/09 12:30:40;;;;;;;15.57;2.70;;;;;;;;;;4974058;28;20062;-76
2022/01/09 12:33:07;;;;;;;11.45;2.22;;;;;;;;;;4973431;28;20051;-77
2022/01/09 12:35:34;;;;;;;8.38;2.10;;;;;;;;;;4989124;28;20107;-76
2022/01/09 12:38:00;;;;;;;11.90;2.40;;;;;;;;;;4979988;28;20109;-77
2022/01/09 12:40:27;;;;;;;17.17;2.25;;;;;;;;;;4975478;28;20046;-77
2022/01/09 12:42:55;;;;;;;11.25;2.10;;;;;;;;;;4973265;28;20039;-77
2022/01/09 12:45:22;;;;;;;17.67;2.65;;;;;;;;;;4973895;28;20031;-77
2022/01/09 12:47:48;;;;;;;18.08;2.65;;;;;;;;;;4981739;28;20133;-77
2022/01/09 12:50:15;;;;;;;13.18;2.10;;;;;;;;;;4973218;28;20050;-77
2022/01/09 12:52:41;;;;;;;11.07;2.83;;;;;;;;;;4972942;28;20039;-77
2022/01/09 12:55:08;;;;;;;12.38;2.42;;;;;;;;;;4972517;28;20116;-76
2022/01/09 12:57:50;;;;;;;16.92;2.55;;;;;;;;;;4983120;28;20049;-77
2022/01/09 13:00:16;;;;;;;12.05;2.47;;;;;;;;;;4991218;28;20549;-76
2022/01/09 13:02:51;;;;;;;10.82;2.47;;;;;;;;;;4985296;28;20035;-75
2022/01/09 13:05:21;;;;;;;15.82;2.45;;;;;;;;;;4982932;28;20385;-76
2022/01/09 13:07:47;;;;;;;8.10;2.55;;;;;;;;;;4981454;28;20216;-76
2022/01/09 13:10:15;;;;;;;12.85;2.20;;;;;;;;;;4972881;28;20046;-76
2022/01/09 13:12:58;;;;;;;9.80;1.90;;;;;;;;;;4979253;28;20058;-75
2022/01/09 13:15:50;;;;;;;8.27;1.90;;;;;;;;;;4991846;28;20050;-76
2022/01/09 13:18:16;;;;;;;9.90;1.65;;;;;;;;;;4981530;28;20127;-76
2022/01/09 13:20:42;;;;;;;13.25;1.80;;;;;;;;;;4992077;28;20070;-76
2022/01/09 13:23:10;;;;;;;10.55;1.92;;;;;;;;;;4992147;28;20066;-77
2022/01/09 13:25:43;;;;;;;12.23;2.55;;;;;;;;;;4988514;28;20408;-76
2022/01/09 13:28:21;;;;;;;9.35;1.65;;;;;;;;;;4981056;28;20031;-76
2022/01/09 13:30:47;;;;;;;6.75;1.85;;;;;;;;;;4971874;28;20536;-76
2022/01/09 13:33:13;;;;;;;10.90;1.90;;;;;;;;;;4977559;28;20087;-76
2022/01/09 13:35:39;;;;;;;8.65;2.10;;;;;;;;;;4989344;28;20042;-76
2022/01/09 13:38:05;;;;;;;9.73;1.85;;;;;;;;;;4979220;28;20058;-76
2022/01/09 13:40:31;;;;;;;8.30;1.58;;;;;;;;;;4974813;28;20057;-76
2022/01/09 13:42:58;;;;;;;7.82;1.55;;;;;;;;;;4972189;28;20119;-76
2022/01/09 13:45:25;;;;;;;7.43;1.45;;;;;;;;;;4972084;28;20042;-76
2022/01/09 13:47:56;;;;;;;9.73;1.60;;;;;;;;;;4981683;28;20039;-76
2022/01/09 13:50:22;;;;;;;;;;;;;;;;;;4972671;28;20043;-76
2022/01/09 13:52:49;;;;;;;7.47;1.40;;;;;;;;;;4972189;28;20276;-76
2022/01/09 13:55:18;;;;;;;8.95;1.75;;;;;;;;;;4972248;28;20045;-76
2022/01/09 13:58:03;;;;;;;10.27;2.30;;;;;;;;;;4982431;28;20042;-76
2022/01/09 14:00:30;;;;;;;7.18;1.92;;;;;;;;;;4971999;28;20057;-76
2022/01/09 14:02:57;;;;;;;6.28;1.35;;;;;;;;;;4971990;28;20046;-76
2022/01/09 14:05:24;;;;;;;6.03;1.38;;;;;;;;;;4971629;28;20077;-76
2022/01/09 14:07:51;;;;;;;8.35;1.67;;;;;;;;;;4976728;28;20043;-76
2022/01/09 14:10:18;;;;;;;4.57;1.38;;;;;;;;;;4983787;28;20042;-76
2022/01/09 14:12:45;;;;;;;8.38;1.95;;;;;;;;;;4971892;28;20043;-76
2022/01/09 14:15:15;;;;;;;8.07;1.30;;;;;;;;;;4972989;28;20130;-76
2022/01/09 14:17:48;;;;;;;4.35;1.33;;;;;;;;;;4976228;28;20047;-76
2022/01/09 14:20:14;;;;;;;6.30;0.93;;;;;;;;;;4991593;28;20049;-75
2022/01/09 14:22:41;;;;;;;4.13;1.42;;;;;;;;;;4990813;28;20146;-76
2022/01/09 14:25:13;;;;;;;3.95;1.15;;;;;;;;;;4989926;28;20106;-76
2022/01/09 14:27:43;;;;;;;4.50;1.50;;;;;;;;;;4981162;28;20488;-76
2022/01/09 14:30:33;;;;;;;6.30;1.05;;;;;;;;;;4971869;28;20050;-76
2022/01/09 14:33:08;;;;;;;5.35;1.10;;;;;;;;;;4973820;28;20561;-76
2022/01/09 14:35:36;;;;;;;6.80;1.10;;;;;;;;;;4989138;28;20035;-76
2022/01/09 14:38:03;;;;;;;5.60;1.30;;;;;;;;;;4981969;28;20049;-76
2022/01/09 14:40:30;;;;;;;5.13;1.27;;;;;;;;;;4971032;28;20129;-76